createdAt,value
2022-07-25T00:00:26.492Z,25.99
2022-07-25T00:02:53.378Z,25.96
2022-07-25T00:05:21.249Z,25.93
2022-07-25T00:07:48.734Z,25.86
2022-07-25T00:10:16.408Z,25.86
2022-07-25T00:12:43.462Z,25.84
2022-07-25T00:15:11.298Z,25.79
2022-07-25T00:17:38.636Z,25.79
2022-07-25T00:20:06.705Z,25.76
2022-07-25T00:22:33.765Z,25.72
2022-07-25T00:25:00.859Z,25.67
2022-07-25T00:27:27.766Z,25.63
2022-07-25T00:29:54.729Z,25.54
2022-07-25T00:32:21.639Z,25.56
2022-07-25T00:34:48.575Z,25.54
2022-07-25T00:37:15.573Z,25.51
2022-07-25T00:39:42.510Z,25.44
2022-07-25T00:42:09.440Z,25.46
2022-07-25T00:44:36.370Z,25.43
2022-07-25T00:47:03.291Z,25.34
2022-07-25T00:49:30.229Z,25.35
2022-07-25T00:51:57.934Z,25.30
2022-07-25T00:54:25.243Z,25.33
2022-07-25T00:56:52.675Z,25.33
2022-07-25T00:59:19.633Z,25.33
2022-07-25T01:01:48.480Z,25.34
2022-07-25T01:04:16.201Z,25.35
2022-07-25T01:06:43.279Z,25.35
2022-07-25T01:09:10.531Z,25.36
2022-07-25T01:11:38.861Z,25.37
2022-07-25T01:14:06.128Z,25.39
2022-07-25T01:16:33.801Z,25.39
2022-07-25T01:19:00.744Z,25.39
2022-07-25T01:21:28.078Z,25.36
2022-07-25T01:23:55.021Z,25.37
2022-07-25T01:26:22.084Z,25.36
2022-07-25T01:28:49.098Z,25.37
2022-07-25T01:31:16.126Z,25.34
2022-07-25T01:33:43.112Z,25.36
2022-07-25T01:36:10.199Z,25.33
2022-07-25T01:38:37.188Z,25.35
2022-07-25T01:41:04.136Z,25.35
2022-07-25T01:43:31.240Z,25.33
2022-07-25T01:45:58.256Z,25.33
2022-07-25T01:48:25.369Z,25.33
2022-07-25T01:50:52.441Z,25.32
2022-07-25T01:53:19.389Z,25.31
2022-07-25T01:55:47.376Z,25.31
2022-07-25T01:58:14.336Z,25.30
2022-07-25T02:00:41.701Z,25.31
2022-07-25T02:03:27.439Z,25.29
2022-07-25T02:05:54.999Z,25.27
2022-07-25T02:08:23.329Z,25.27
2022-07-25T02:10:50.323Z,25.27
2022-07-25T02:13:17.317Z,25.26
2022-07-25T02:15:44.236Z,25.25
2022-07-25T02:18:11.237Z,25.21
2022-07-25T02:20:38.284Z,25.24
2022-07-25T02:23:05.996Z,25.18
2022-07-25T02:25:33.791Z,25.23
2022-07-25T02:28:01.025Z,25.23
2022-07-25T02:30:28.354Z,25.20
2022-07-25T02:32:55.318Z,25.21
2022-07-25T02:35:22.328Z,25.20
2022-07-25T02:37:49.268Z,25.17
2022-07-25T02:40:16.190Z,25.16
2022-07-25T02:42:43.102Z,25.16
2022-07-25T02:45:10.315Z,25.15
2022-07-25T02:47:37.206Z,25.14
2022-07-25T02:50:04.943Z,25.12
2022-07-25T02:52:31.875Z,25.12
2022-07-25T02:54:58.838Z,25.11
2022-07-25T02:57:25.733Z,25.11
2022-07-25T02:59:52.681Z,25.09
2022-07-25T03:02:19.615Z,25.08
2022-07-25T03:04:46.534Z,25.07
2022-07-25T03:07:13.503Z,25.07
2022-07-25T03:09:40.445Z,25.07
2022-07-25T03:12:07.356Z,25.06
2022-07-25T03:14:34.839Z,25.06
2022-07-25T03:17:01.847Z,25.06
2022-07-25T03:19:28.906Z,25.07
2022-07-25T03:21:55.857Z,25.08
2022-07-25T03:24:22.885Z,25.08
2022-07-25T03:26:50.022Z,25.08
2022-07-25T03:29:17.057Z,25.05
2022-07-25T03:31:44.525Z,25.11
2022-07-25T03:34:11.530Z,25.13
2022-07-25T03:36:38.428Z,25.15
2022-07-25T03:39:06.422Z,25.16
2022-07-25T03:41:33.713Z,25.17
2022-07-25T03:44:00.655Z,25.18
2022-07-25T03:46:27.585Z,25.18
2022-07-25T03:48:55.603Z,25.18
2022-07-25T03:51:22.699Z,25.21
2022-07-25T03:54:05.591Z,25.21
2022-07-25T03:56:43.415Z,25.21
2022-07-25T03:59:14.821Z,25.22
2022-07-25T04:01:43.546Z,25.24
2022-07-25T04:04:10.931Z,25.25
2022-07-25T04:06:39.068Z,25.27
2022-07-25T04:09:08.623Z,25.32
2022-07-25T04:11:35.990Z,25.43
2022-07-25T04:14:03.432Z,25.63
2022-07-25T04:16:30.783Z,25.87
2022-07-25T04:18:57.761Z,26.15
2022-07-25T04:21:25.545Z,26.49
2022-07-25T04:23:52.893Z,26.81
2022-07-25T04:26:20.066Z,27.06
2022-07-25T04:28:47.039Z,27.31
2022-07-25T04:31:14.187Z,27.60
2022-07-25T04:33:42.233Z,27.74
2022-07-25T04:36:09.243Z,27.74
2022-07-25T04:38:36.379Z,27.69
2022-07-25T04:41:04.534Z,27.60
2022-07-25T04:43:31.484Z,27.50
2022-07-25T04:45:58.480Z,27.42
2022-07-25T04:48:25.602Z,27.32
2022-07-25T04:50:52.649Z,27.30
2022-07-25T04:53:19.716Z,27.25
2022-07-25T04:55:46.785Z,27.23
2022-07-25T04:58:13.799Z,27.21
2022-07-25T05:00:41.746Z,27.21
2022-07-25T05:03:08.692Z,27.19
2022-07-25T05:05:35.615Z,27.19
2022-07-25T05:08:02.526Z,27.18
2022-07-25T05:10:30.394Z,27.17
2022-07-25T05:12:57.331Z,27.16
2022-07-25T05:15:24.765Z,27.19
2022-07-25T05:17:51.797Z,27.22
2022-07-25T05:20:19.037Z,27.23
2022-07-25T05:22:45.959Z,27.24
2022-07-25T05:25:13.158Z,27.27
2022-07-25T05:27:40.752Z,27.30
2022-07-25T05:30:10.323Z,27.33
2022-07-25T05:32:38.271Z,27.35
2022-07-25T05:35:08.036Z,27.38
2022-07-25T05:37:36.497Z,27.43
2022-07-25T05:40:05.971Z,27.45
2022-07-25T05:42:32.876Z,27.51
2022-07-25T05:45:00.189Z,27.53
2022-07-25T05:47:27.118Z,27.62
2022-07-25T05:49:54.329Z,27.66
2022-07-25T05:52:21.296Z,27.72
2022-07-25T05:54:48.233Z,27.76
2022-07-25T05:57:15.123Z,27.81
2022-07-25T05:59:42.066Z,27.86
2022-07-25T06:02:09.037Z,27.93
2022-07-25T06:04:36.033Z,27.96
2022-07-25T06:07:02.929Z,27.99
2022-07-25T06:09:31.869Z,28.15
2022-07-25T06:12:01.136Z,28.21
2022-07-25T06:14:29.526Z,28.28
2022-07-25T06:16:57.181Z,28.37
2022-07-25T06:19:24.211Z,28.44
2022-07-25T06:21:51.197Z,28.50
2022-07-25T06:24:18.196Z,28.61
2022-07-25T06:26:45.094Z,28.71
2022-07-25T06:29:12.270Z,28.82
2022-07-25T06:31:39.303Z,28.92
2022-07-25T06:34:06.807Z,29.01
2022-07-25T06:36:34.144Z,29.03
2022-07-25T06:39:01.611Z,29.19
2022-07-25T06:41:28.523Z,29.28
2022-07-25T06:43:55.457Z,29.38
2022-07-25T06:46:22.409Z,29.47
2022-07-25T06:48:49.462Z,29.58
2022-07-25T06:51:16.407Z,29.69
2022-07-25T06:53:43.751Z,29.77
2022-07-25T06:56:15.765Z,29.86
2022-07-25T06:58:44.796Z,29.96
2022-07-25T07:01:11.824Z,30.07
2022-07-25T07:03:40.238Z,30.14
2022-07-25T07:06:09.432Z,30.25
2022-07-25T07:08:37.764Z,30.34
2022-07-25T07:11:06.516Z,30.44
2022-07-25T07:13:34.114Z,30.52
2022-07-25T07:16:01.497Z,30.60
2022-07-25T07:18:28.657Z,30.72
2022-07-25T07:20:55.560Z,30.84
2022-07-25T07:23:22.488Z,30.93
2022-07-25T07:25:51.685Z,31.04
2022-07-25T07:28:18.775Z,31.13
2022-07-25T07:31:15.038Z,31.25
2022-07-25T07:33:33.530Z,31.34
2022-07-25T07:36:01.710Z,31.44
2022-07-25T07:38:28.696Z,31.54
2022-07-25T07:40:55.609Z,31.60
2022-07-25T07:43:27.648Z,31.70
2022-07-25T07:46:01.525Z,31.78
2022-07-25T07:48:30.385Z,31.86
2022-07-25T07:50:58.116Z,31.94
2022-07-25T07:53:44.080Z,32.02
2022-07-25T07:56:12.072Z,32.13
2022-07-25T07:58:39.144Z,32.22
2022-07-25T08:01:06.498Z,32.24
2022-07-25T08:03:33.631Z,32.41
2022-07-25T08:06:00.643Z,32.52
2022-07-25T08:08:31.079Z,32.59
2022-07-25T08:10:59.322Z,32.71
2022-07-25T08:13:30.710Z,32.81
2022-07-25T08:15:59.616Z,32.89
2022-07-25T08:18:29.863Z,33.01
2022-07-25T08:20:57.173Z,33.09
2022-07-25T08:23:25.673Z,33.15
2022-07-25T08:25:52.683Z,33.25
2022-07-25T08:28:20.861Z,33.38
2022-07-25T08:30:47.870Z,33.49
2022-07-25T08:33:18.027Z,33.59
2022-07-25T08:35:54.529Z,33.68
2022-07-25T08:38:24.094Z,33.77
2022-07-25T08:40:51.789Z,33.86
2022-07-25T08:43:19.700Z,33.95
2022-07-25T08:45:53.570Z,34.02
2022-07-25T08:48:26.407Z,34.09
2022-07-25T08:50:54.857Z,34.22
2022-07-25T08:53:37.923Z,34.33
2022-07-25T08:56:12.555Z,34.41
2022-07-25T08:58:44.111Z,34.54
2022-07-25T09:01:12.975Z,34.69
2022-07-25T09:03:42.360Z,34.81
2022-07-25T09:06:22.470Z,34.95
2022-07-25T09:08:59.457Z,35.09
2022-07-25T09:11:35.989Z,35.22
2022-07-25T09:14:08.925Z,35.36
2022-07-25T09:16:44.456Z,35.47
2022-07-25T09:19:21.221Z,35.60
2022-07-25T09:22:10.266Z,35.71
2022-07-25T09:24:44.791Z,35.76
2022-07-25T09:27:12.794Z,35.81
2022-07-25T09:29:42.525Z,35.82
2022-07-25T09:32:20.669Z,35.81
2022-07-25T09:34:49.929Z,35.84
2022-07-25T09:37:19.551Z,35.87
2022-07-25T09:39:49.840Z,35.90
2022-07-25T09:42:25.566Z,35.92
2022-07-25T09:45:11.294Z,35.98
2022-07-25T09:47:50.564Z,36.08
2022-07-25T09:50:18.972Z,36.21
2022-07-25T09:52:46.732Z,36.30
2022-07-25T09:55:16.805Z,36.42
2022-07-25T09:57:45.106Z,36.52
2022-07-25T10:00:18.984Z,36.60
2022-07-25T10:02:55.571Z,36.68
2022-07-25T10:05:59.663Z,36.76
2022-07-25T10:08:27.326Z,36.91
2022-07-25T10:10:54.321Z,37.02
2022-07-25T10:13:35.121Z,37.14
2022-07-25T10:16:03.021Z,37.23
2022-07-25T10:18:30.958Z,37.30
2022-07-25T10:21:25.449Z,37.32
2022-07-25T10:24:06.414Z,37.31
2022-07-25T10:26:39.349Z,37.33
2022-07-25T10:29:11.949Z,37.38
2022-07-25T10:31:49.941Z,37.47
2022-07-25T10:34:30.955Z,37.55
2022-07-25T10:37:14.327Z,37.68
2022-07-25T10:39:48.083Z,37.78
2022-07-25T10:42:17.872Z,37.84
2022-07-25T10:45:09.416Z,37.87
2022-07-25T10:47:42.401Z,37.92
2022-07-25T10:50:25.618Z,37.95
2022-07-25T10:53:00.574Z,38.02
2022-07-25T10:55:29.370Z,38.09
2022-07-25T10:58:21.653Z,38.11
2022-07-25T11:00:48.671Z,38.12
2022-07-25T11:03:18.440Z,38.12
2022-07-25T11:05:47.387Z,38.12
2022-07-25T11:08:22.648Z,38.15
2022-07-25T11:10:53.375Z,38.17
2022-07-25T11:13:20.681Z,38.22
2022-07-25T11:15:48.176Z,38.31
2022-07-25T11:18:15.139Z,38.36
2022-07-25T11:20:42.078Z,38.43
2022-07-25T11:23:09.030Z,38.49
2022-07-25T11:25:35.994Z,38.53
2022-07-25T11:28:03.852Z,38.51
2022-07-25T11:30:31.137Z,38.54
2022-07-25T11:33:01.530Z,38.53
2022-07-25T11:35:31.573Z,38.54
2022-07-25T11:38:02.499Z,38.52
2022-07-25T11:40:30.843Z,38.50
2022-07-25T11:42:59.665Z,38.50
2022-07-25T11:45:31.007Z,38.49
2022-07-25T11:48:08.199Z,38.48
2022-07-25T11:50:39.665Z,38.48
2022-07-25T11:53:10.097Z,38.50
2022-07-25T11:55:42.449Z,38.51
2022-07-25T11:58:12.834Z,38.49
2022-07-25T12:00:47.671Z,38.47
2022-07-25T12:03:21.095Z,38.46
2022-07-25T12:05:50.054Z,38.40
2022-07-25T12:08:19.963Z,38.35
2022-07-25T12:10:49.157Z,38.31
2022-07-25T12:13:25.689Z,38.22
2022-07-25T12:15:53.666Z,38.20
2022-07-25T12:18:20.581Z,38.15
2022-07-25T12:20:47.489Z,38.11
2022-07-25T12:23:14.770Z,38.10
2022-07-25T12:25:45.891Z,38.09
2022-07-25T12:28:13.575Z,38.11
2022-07-25T12:30:42.413Z,38.18
2022-07-25T12:33:10.433Z,38.30
2022-07-25T12:35:37.763Z,38.40
2022-07-25T12:38:05.144Z,38.56
2022-07-25T12:40:32.313Z,38.74
2022-07-25T12:42:59.839Z,38.83
2022-07-25T12:45:27.865Z,38.91
2022-07-25T12:47:55.034Z,38.94
2022-07-25T12:50:25.586Z,39.02
2022-07-25T12:52:52.534Z,39.06
2022-07-25T12:55:20.894Z,39.17
2022-07-25T12:57:49.461Z,39.23
2022-07-25T13:00:20.370Z,39.31
2022-07-25T13:02:48.842Z,39.39
2022-07-25T13:05:15.873Z,39.50
2022-07-25T13:07:42.808Z,39.54
2022-07-25T13:10:10.416Z,39.56
2022-07-25T13:12:37.323Z,39.54
2022-07-25T13:15:05.128Z,39.54
2022-07-25T13:17:32.406Z,39.51
2022-07-25T13:19:59.907Z,39.47
2022-07-25T13:22:26.920Z,39.45
2022-07-25T13:24:54.507Z,39.43
2022-07-25T13:27:22.918Z,39.41
2022-07-25T13:29:56.296Z,39.40
2022-07-25T13:32:23.883Z,39.39
2022-07-25T13:34:51.049Z,39.39
2022-07-25T13:37:18.108Z,39.34
2022-07-25T13:39:45.055Z,39.39
2022-07-25T13:42:11.968Z,39.36
2022-07-25T13:44:38.905Z,39.35
2022-07-25T13:47:06.172Z,39.33
2022-07-25T13:49:33.217Z,39.32
2022-07-25T13:52:00.140Z,39.33
2022-07-25T13:54:27.108Z,39.36
2022-07-25T13:56:54.027Z,39.35
2022-07-25T13:59:21.898Z,39.39
2022-07-25T14:01:50.519Z,39.41
2022-07-25T14:04:17.882Z,39.43
2022-07-25T14:06:45.057Z,39.46
2022-07-25T14:09:12.086Z,39.49
2022-07-25T14:11:39.134Z,39.51
2022-07-25T14:14:06.084Z,39.51
2022-07-25T14:16:34.114Z,39.49
2022-07-25T14:19:02.226Z,39.49
2022-07-25T14:21:30.549Z,39.50
2022-07-25T14:23:57.471Z,39.51
2022-07-25T14:26:24.411Z,39.54
2022-07-25T14:28:51.366Z,39.54
2022-07-25T14:31:18.359Z,39.58
2022-07-25T14:33:45.330Z,39.56
2022-07-25T14:36:12.787Z,39.53
2022-07-25T14:38:39.752Z,39.50
2022-07-25T14:41:12.521Z,39.46
2022-07-25T14:43:41.466Z,39.40
2022-07-25T14:46:09.032Z,39.30
2022-07-25T14:48:37.592Z,39.24
2022-07-25T14:51:05.616Z,39.15
2022-07-25T14:53:33.750Z,39.06
2022-07-25T14:56:02.314Z,38.99
2022-07-25T14:58:29.250Z,38.96
2022-07-25T15:00:56.242Z,38.94
2022-07-25T15:03:23.308Z,38.92
2022-07-25T15:05:50.231Z,38.90
2022-07-25T15:08:17.178Z,38.86
2022-07-25T15:10:44.096Z,38.83
2022-07-25T15:13:30.336Z,38.79
2022-07-25T15:15:58.254Z,38.69
2022-07-25T15:18:25.271Z,38.68
2022-07-25T15:20:52.256Z,38.63
2022-07-25T15:23:21.084Z,38.58
2022-07-25T15:26:04.773Z,38.48
2022-07-25T15:28:37.492Z,38.40
2022-07-25T15:31:06.211Z,38.36
2022-07-25T15:33:33.484Z,38.29
2022-07-25T15:36:00.473Z,38.24
2022-07-25T15:38:28.870Z,38.20
2022-07-25T15:40:55.879Z,38.17
2022-07-25T15:43:23.261Z,38.10
2022-07-25T15:45:50.572Z,38.08
2022-07-25T15:48:18.334Z,38.04
2022-07-25T15:50:48.713Z,37.99
2022-07-25T15:53:15.947Z,37.93
2022-07-25T15:55:43.310Z,37.81
2022-07-25T15:58:11.500Z,37.55
2022-07-25T16:00:39.979Z,37.16
2022-07-25T16:03:07.199Z,36.72
2022-07-25T16:05:35.171Z,36.15
2022-07-25T16:08:03.353Z,35.56
2022-07-25T16:10:32.112Z,35.06
2022-07-25T16:12:59.343Z,34.63
2022-07-25T16:15:26.505Z,34.33
2022-07-25T16:18:00.114Z,33.99
2022-07-25T16:20:31.502Z,33.61
2022-07-25T16:22:59.299Z,33.42
2022-07-25T16:25:29.226Z,33.35
2022-07-25T16:27:56.740Z,33.28
2022-07-25T16:30:23.867Z,33.24
2022-07-25T16:32:50.786Z,33.20
2022-07-25T16:35:17.761Z,33.18
2022-07-25T16:37:44.819Z,33.18
2022-07-25T16:40:12.452Z,33.18
2022-07-25T16:42:39.651Z,33.20
2022-07-25T16:45:07.459Z,33.20
2022-07-25T16:47:36.983Z,33.18
2022-07-25T16:50:04.345Z,33.12
2022-07-25T16:52:31.243Z,33.02
2022-07-25T16:54:58.173Z,32.91
2022-07-25T16:57:25.402Z,32.79
2022-07-25T16:59:53.404Z,32.68
2022-07-25T17:02:23.878Z,32.59
2022-07-25T17:04:54.823Z,32.49
2022-07-25T17:07:21.811Z,32.40
2022-07-25T17:09:48.732Z,32.32
2022-07-25T17:12:17.323Z,32.23
2022-07-25T17:14:45.001Z,32.20
2022-07-25T17:17:12.010Z,32.15
2022-07-25T17:19:41.455Z,32.02
2022-07-25T17:22:09.883Z,31.98
2022-07-25T17:24:37.215Z,31.94
2022-07-25T17:27:04.253Z,31.83
2022-07-25T17:29:31.280Z,31.85
2022-07-25T17:31:58.315Z,31.82
2022-07-25T17:34:26.842Z,31.78
2022-07-25T17:36:54.936Z,31.76
2022-07-25T17:39:22.065Z,31.75
2022-07-25T17:41:49.093Z,31.73
2022-07-25T17:44:16.462Z,31.70
2022-07-25T17:46:44.124Z,31.69
2022-07-25T17:49:11.234Z,31.65
2022-07-25T17:51:38.220Z,31.64
2022-07-25T17:54:05.882Z,31.64
2022-07-25T17:56:33.620Z,31.64
2022-07-25T17:59:00.570Z,31.62
2022-07-25T18:01:27.522Z,31.63
2022-07-25T18:03:54.471Z,31.61
2022-07-25T18:06:24.068Z,31.56
2022-07-25T18:08:54.723Z,31.53
2022-07-25T18:11:21.645Z,31.54
2022-07-25T18:13:48.594Z,31.51
2022-07-25T18:16:15.700Z,31.45
2022-07-25T18:18:42.735Z,31.42
2022-07-25T18:21:09.667Z,31.40
2022-07-25T18:23:36.639Z,31.33
2022-07-25T18:26:04.417Z,31.26
2022-07-25T18:28:31.387Z,31.17
2022-07-25T18:30:58.375Z,31.02
2022-07-25T18:33:25.591Z,30.84
2022-07-25T18:35:52.572Z,30.60
2022-07-25T18:38:19.558Z,30.38
2022-07-25T18:40:46.500Z,30.18
2022-07-25T18:43:13.674Z,30.00
2022-07-25T18:45:40.808Z,29.81
2022-07-25T18:48:08.328Z,29.60
2022-07-25T18:50:35.262Z,29.42
2022-07-25T18:53:02.185Z,29.33
2022-07-25T18:55:29.207Z,29.27
2022-07-25T18:57:56.120Z,29.21
2022-07-25T19:00:23.058Z,29.14
2022-07-25T19:02:50.546Z,29.06
2022-07-25T19:05:17.507Z,28.91
2022-07-25T19:07:44.566Z,28.59
2022-07-25T19:10:11.737Z,28.18
2022-07-25T19:12:40.081Z,27.95
2022-07-25T19:15:07.804Z,27.84
2022-07-25T19:17:35.867Z,27.81
2022-07-25T19:20:02.824Z,27.66
2022-07-25T19:22:29.738Z,27.25
2022-07-25T19:24:56.679Z,26.91
2022-07-25T19:27:25.799Z,26.74
2022-07-25T19:29:52.742Z,26.70
2022-07-25T19:32:19.642Z,26.70
2022-07-25T19:34:46.563Z,26.70
2022-07-25T19:37:13.461Z,26.66
2022-07-25T19:39:40.405Z,26.64
2022-07-25T19:42:09.724Z,26.65
2022-07-25T19:44:37.183Z,26.63
2022-07-25T19:47:07.252Z,26.67
2022-07-25T19:49:36.732Z,26.69
2022-07-25T19:52:03.818Z,26.71
2022-07-25T19:54:30.710Z,26.71
2022-07-25T19:56:57.931Z,26.72
2022-07-25T19:59:24.830Z,26.70
2022-07-25T20:01:52.288Z,26.59
2022-07-25T20:04:19.448Z,26.40
2022-07-25T20:06:46.471Z,26.21
2022-07-25T20:09:14.094Z,26.10
2022-07-25T20:11:41.365Z,26.08
2022-07-25T20:14:09.406Z,26.13
2022-07-25T20:16:37.905Z,26.15
2022-07-25T20:19:08.183Z,26.23
2022-07-25T20:21:39.716Z,26.24
2022-07-25T20:24:07.194Z,26.26
2022-07-25T20:26:34.428Z,26.22
2022-07-25T20:29:01.569Z,26.23
2022-07-25T20:31:28.574Z,26.24
2022-07-25T20:33:55.538Z,26.24
2022-07-25T20:36:22.443Z,26.24
2022-07-25T20:38:49.517Z,26.21
2022-07-25T20:41:16.519Z,26.18
2022-07-25T20:43:43.490Z,26.18
2022-07-25T20:46:10.435Z,26.16
2022-07-25T20:48:37.529Z,26.16
2022-07-25T20:51:04.647Z,26.12
2022-07-25T20:53:31.604Z,26.11
2022-07-25T20:55:59.219Z,26.08
2022-07-25T20:58:26.140Z,26.05
2022-07-25T21:00:53.150Z,26.02
2022-07-25T21:03:20.097Z,25.99
2022-07-25T21:05:47.005Z,25.96
2022-07-25T21:08:15.221Z,25.92
2022-07-25T21:10:42.364Z,25.90
2022-07-25T21:13:09.388Z,25.87
2022-07-25T21:15:36.307Z,25.84
2022-07-25T21:18:03.277Z,25.84
2022-07-25T21:20:30.263Z,25.83
2022-07-25T21:22:57.185Z,25.82
2022-07-25T21:25:24.162Z,25.78
2022-07-25T21:27:51.128Z,25.73
2022-07-25T21:30:18.100Z,25.70
2022-07-25T21:32:45.100Z,25.71
2022-07-25T21:35:12.254Z,25.70
2022-07-25T21:37:39.945Z,25.67
2022-07-25T21:40:07.947Z,25.65
2022-07-25T21:42:36.266Z,25.62
2022-07-25T21:45:03.793Z,25.58
2022-07-25T21:47:30.732Z,25.53
2022-07-25T21:50:19.185Z,25.44
2022-07-25T21:52:52.630Z,25.40
2022-07-25T21:55:21.316Z,25.35
2022-07-25T21:57:48.890Z,25.34
2022-07-25T22:00:16.435Z,25.32
2022-07-25T22:02:46.053Z,25.34
2022-07-25T22:05:14.526Z,25.33
2022-07-25T22:07:42.680Z,25.34
2022-07-25T22:10:11.831Z,25.35
2022-07-25T22:12:39.891Z,25.34
2022-07-25T22:15:11.961Z,25.33
2022-07-25T22:17:48.395Z,25.33
2022-07-25T22:20:18.413Z,25.32
2022-07-25T22:22:47.101Z,25.27
2022-07-25T22:25:14.207Z,25.28
2022-07-25T22:27:41.102Z,25.27
2022-07-25T22:30:10.556Z,25.28
2022-07-25T22:32:40.311Z,25.28
2022-07-25T22:35:07.777Z,25.28
2022-07-25T22:37:34.677Z,25.27
2022-07-25T22:40:01.839Z,25.27
2022-07-25T22:42:28.785Z,25.27
2022-07-25T22:44:55.718Z,25.25
2022-07-25T22:47:22.617Z,25.25
2022-07-25T22:49:49.760Z,25.25
2022-07-25T22:52:16.653Z,25.22
2022-07-25T22:54:43.749Z,25.23
2022-07-25T22:57:10.654Z,25.22
2022-07-25T22:59:37.574Z,25.20
2022-07-25T23:02:04.985Z,25.17
2022-07-25T23:04:31.995Z,25.18
2022-07-25T23:06:58.940Z,25.16
2022-07-25T23:09:25.919Z,25.09
2022-07-25T23:12:05.276Z,25.13
2022-07-25T23:14:32.278Z,25.10
2022-07-25T23:17:31.608Z,25.09
2022-07-25T23:19:58.680Z,25.05
2022-07-25T23:22:28.157Z,25.04
2022-07-25T23:24:56.419Z,25.02
2022-07-25T23:27:23.950Z,25.01
2022-07-25T23:29:50.971Z,25.00
2022-07-25T23:32:18.091Z,25.01
2022-07-25T23:34:45.189Z,24.97
2022-07-25T23:37:12.096Z,24.98
2022-07-25T23:39:39.017Z,24.96
2022-07-25T23:42:05.942Z,24.95
2022-07-25T23:44:32.873Z,24.94
2022-07-25T23:47:01.419Z,24.92
2022-07-25T23:49:28.548Z,24.91
2022-07-25T23:51:57.136Z,24.91
2022-07-25T23:54:24.755Z,24.89
2022-07-25T23:56:52.320Z,24.90
2022-07-25T23:59:19.705Z,24.89
